Mugan — 9HA2962 — position and weather

sailwx.info

Track history (hours):
 
Tides and Currents Weather Stations Pressure Air Temp Water Temp Dewpoint Dewpoint Depression Visibility Wind Speed Wind Dir Waves Ship Positions

Mugan

Last reported at 2017-Nov-19 10:32 UTC. Time now 2017-Nov-25 02:12 UTC.
Position N 37°33' W 000°59'.

Length 140 m; draft 4.5 m.

Type: Ship (hazmat cat B). MMSI: 256914000.

Date/timePositionNaut miles runAvg speedWind from/ knotsBaromVisibWave heightAir tempDewpointWater temp
2017-Nov-19 10:32N 37°33' W 000°59'1 9.0
2017-Nov-19 10:28N 37°33' W 000°58'4 8.7
2017-Nov-19 10:00N 37°31' W 000°54'4 9.0
2017-Nov-19 09:31N 37°31' W 000°48'4 8.9
2017-Nov-19 09:00N 37°32' W 000°43'5 8.8
2017-Nov-19 08:27N 37°32' W 000°36'4 9.1
2017-Nov-19 08:00N 37°35' W 000°33'4 8.9
2017-Nov-19 07:31N 37°39' W 000°30'5 9.2
2017-Nov-19 07:01N 37°43' W 000°26'17 9.2
2017-Nov-19 05:09N 37°57' W 000°15'2 8.8
2017-Nov-19 04:58N 37°58' W 000°14'  
2017-Nov-15 10:49N 37°44' W 000°21'2 7.2
2017-Nov-15 10:30N 37°42' W 000°23'3 6.9
2017-Nov-15 10:00N 37°39' W 000°25'4 6.9
2017-Nov-15 09:30N 37°36' W 000°28'3 6.7
2017-Nov-15 09:00N 37°34' W 000°30'3 6.3
2017-Nov-15 08:29N 37°32' W 000°34'6 6.5
2017-Nov-15 07:31N 37°31' W 000°41'0 6.6
2017-Nov-15 07:30N 37°31' W 000°42'3 6.5
2017-Nov-15 07:00N 37°31' W 000°46'4 6.7
2017-Nov-15 06:27N 37°31' W 000°50'7 0.4
2017-Nov-14 11:04N 37°33' W 000°59'2 8.0
2017-Nov-14 10:53N 37°32' W 000°57'3 9.1
2017-Nov-14 10:30N 37°31' W 000°53'5 9.6
2017-Nov-14 10:00N 37°32' W 000°47'7 9.6
2017-Nov-14 09:14N 37°32' W 000°38'2 9.3
2017-Nov-14 09:00N 37°33' W 000°35'5 9.7
2017-Nov-14 08:28N 37°37' W 000°31'4 9.6
2017-Nov-14 08:00N 37°41' W 000°28'5 9.6
2017-Nov-14 07:29N 37°45' W 000°24'  
2017-Nov-10 12:15N 37°44' W 000°22'2 6.5
2017-Nov-10 11:59N 37°42' W 000°23'3 6.4
2017-Nov-10 11:30N 37°40' W 000°25'3 6.1
2017-Nov-10 11:00N 37°37' W 000°27'3 5.9
2017-Nov-10 10:30N 37°35' W 000°29'3 5.7
2017-Nov-10 10:00N 37°32' W 000°32'7 6.5
2017-Nov-10 08:53N 37°31' W 000°41'4 9.7
2017-Nov-10 08:29N 37°31' W 000°46'5 9.9
2017-Nov-10 07:58N 37°31' W 000°52'6 0.3
2017-Nov-09 12:22N 37°33' W 000°59'2 5.0
2017-Nov-09 12:00N 37°32' W 000°57'2 4.3
2017-Nov-09 11:30N 37°31' W 000°55'5 9.4
2017-Nov-09 11:00N 37°31' W 000°49'  
Track history (hours):
 
Tides and Currents Weather Stations Pressure Air Temp Water Temp Dewpoint Dewpoint Depression Visibility Wind Speed Wind Dir Waves Ship Positions

Mugan

Last reported at 2017-Nov-19 10:32 UTC. Time now 2017-Nov-25 02:12 UTC.
Position N 37°33' W 000°59'.

Length 140 m; draft 4.5 m.

Type: Ship (hazmat cat B). MMSI: 256914000.

Date/timePositionNaut miles runAvg speedWind from/ knotsBaromVisibWave heightAir tempDewpointWater temp
2017-Nov-19 10:32N 37°33' W 000°59'1 9.0
2017-Nov-19 10:28N 37°33' W 000°58'4 8.7
2017-Nov-19 10:00N 37°31' W 000°54'4 9.0
2017-Nov-19 09:31N 37°31' W 000°48'4 8.9
2017-Nov-19 09:00N 37°32' W 000°43'5 8.8
2017-Nov-19 08:27N 37°32' W 000°36'4 9.1
2017-Nov-19 08:00N 37°35' W 000°33'4 8.9
2017-Nov-19 07:31N 37°39' W 000°30'5 9.2
2017-Nov-19 07:01N 37°43' W 000°26'17 9.2
2017-Nov-19 05:09N 37°57' W 000°15'2 8.8
2017-Nov-19 04:58N 37°58' W 000°14'  
2017-Nov-15 10:49N 37°44' W 000°21'2 7.2
2017-Nov-15 10:30N 37°42' W 000°23'3 6.9
2017-Nov-15 10:00N 37°39' W 000°25'4 6.9
2017-Nov-15 09:30N 37°36' W 000°28'3 6.7
2017-Nov-15 09:00N 37°34' W 000°30'3 6.3
2017-Nov-15 08:29N 37°32' W 000°34'6 6.5
2017-Nov-15 07:31N 37°31' W 000°41'0 6.6
2017-Nov-15 07:30N 37°31' W 000°42'3 6.5
2017-Nov-15 07:00N 37°31' W 000°46'4 6.7
2017-Nov-15 06:27N 37°31' W 000°50'7 0.4
2017-Nov-14 11:04N 37°33' W 000°59'2 8.0
2017-Nov-14 10:53N 37°32' W 000°57'3 9.1
2017-Nov-14 10:30N 37°31' W 000°53'5 9.6
2017-Nov-14 10:00N 37°32' W 000°47'7 9.6
2017-Nov-14 09:14N 37°32' W 000°38'2 9.3
2017-Nov-14 09:00N 37°33' W 000°35'5 9.7
2017-Nov-14 08:28N 37°37' W 000°31'4 9.6
2017-Nov-14 08:00N 37°41' W 000°28'5 9.6
2017-Nov-14 07:29N 37°45' W 000°24'  
2017-Nov-10 12:15N 37°44' W 000°22'2 6.5
2017-Nov-10 11:59N 37°42' W 000°23'3 6.4
2017-Nov-10 11:30N 37°40' W 000°25'3 6.1
2017-Nov-10 11:00N 37°37' W 000°27'3 5.9
2017-Nov-10 10:30N 37°35' W 000°29'3 5.7
2017-Nov-10 10:00N 37°32' W 000°32'7 6.5
2017-Nov-10 08:53N 37°31' W 000°41'4 9.7
2017-Nov-10 08:29N 37°31' W 000°46'5 9.9
2017-Nov-10 07:58N 37°31' W 000°52'6 0.3
2017-Nov-09 12:22N 37°33' W 000°59'2 5.0
2017-Nov-09 12:00N 37°32' W 000°57'2 4.3
2017-Nov-09 11:30N 37°31' W 000°55'5 9.4
2017-Nov-09 11:00N 37°31' W 000°49'  

Dump ship's entire track history